Česky Dansk Deutsch English Español Suomi Français Magyar Italiano Nederlands norsk Polski Português svenska Türkçe

 

Het Weer

King Khaled International Airport (Saudi-Arabië)

01:00, 28 juli 2016 (GMT)

NWNNE
WE
SWSSE
Home            
King Khaled International Airport Riyadh Dawadmi Al Ahsa Gassim Hafr Al-Batin Dammam-King Fahd International Airport Jubail Naval Dhahran Al Qaysumah Bahrain International Airport Al Udeid Doha International Airport Kuwait Internationalairport Wadi Al Dawasser Airport Hail Bushehr Civ / Afb Rafha Shaibah / Basrah Abadan Bandar Mahshahr / Mahshahr Buhasa Bisha

Om een weerknop op uw website of weblog te plaatsen, copieer onderstaande code en plak die in uw pagina. In het eerste vakje staat HTML-code, in het tweede vakje UBB-code.


Add to Google

Details

Visibility:Greater than 10000 m, 10 km, 32800 ft, 6.2 miles
Clouds:CAVOC
Temperature:31°C, 88°F
Gefühlte Temperatur:30°C, 86°F
Dew-point:13°C, 55°F
Atmospheric pressure:1004 hPa, 753.1 mmHg, 29.65 inHg, 0.991 atm
Relative humidity:33.3 %
METAR:OERK 280100Z 00000KT CAVOK 31/13 Q1004 NOSIG

Snelkoppelingen

Actuele weersinformatie van de hele wereld. Voeg locaties toe met het plus (+) symbool. Deze snelkoppelingen kunnen worden toegevoegd aan Google.

Lid van de Technetium groep

website free tracking
StatCounter NetStat W3C Validator

17-04-2021 11:10:53
astro.technetium.be money.technetium.be phote.technetium.be tafeltennistafel.technetium.be www.ligfiets.net